Time;durP1;ratioP1;P1;durP2;ratioP2;P2;SDS_P1;SDS_P2;PMS_P1;PMS_P2;Temp;Humidity;BMP_temperature;BMP_pressure;BME280_temperature;BME280_humidity;BME280_pressure;Samples;Min_cycle;Max_cycle;Signal;HPM_P1;HPM_P2
2022/03/04 00:01:12;;;;;;;26.50;17.03;;;;;;;;;;5115553;28;20947;-76
2022/03/04 00:03:38;;;;;;;22.33;15.87;;;;;;;;;;5115916;28;20442;-76
2022/03/04 00:06:05;;;;;;;26.43;16.97;;;;;;;;;;5115822;28;20408;-75
2022/03/04 00:08:31;;;;;;;24.70;16.50;;;;;;;;;;5115736;28;20517;-75
2022/03/04 00:10:57;;;;;;;23.97;16.20;;;;;;;;;;5115699;28;20416;-75
2022/03/04 00:13:23;;;;;;;23.70;16.30;;;;;;;;;;5115535;28;20419;-75
2022/03/04 00:15:49;;;;;;;27.27;16.13;;;;;;;;;;5115938;28;20422;-77
2022/03/04 00:18:15;;;;;;;23.47;15.30;;;;;;;;;;5115685;28;20431;-78
2022/03/04 00:20:41;;;;;;;39.87;17.70;;;;;;;;;;5115186;28;20516;-77
2022/03/04 00:23:07;;;;;;;23.53;16.40;;;;;;;;;;5115642;28;20480;-76
2022/03/04 00:25:33;;;;;;;23.70;16.73;;;;;;;;;;5115173;28;20414;-75
2022/03/04 00:27:59;;;;;;;22.50;16.30;;;;;;;;;;5115147;28;20902;-75
2022/03/04 00:30:26;;;;;;;22.40;16.03;;;;;;;;;;5115320;28;20423;-76
2022/03/04 00:32:52;;;;;;;25.50;16.33;;;;;;;;;;5115333;28;20444;-75
2022/03/04 00:35:18;;;;;;;29.27;17.83;;;;;;;;;;5115222;28;20929;-76
2022/03/04 00:37:44;;;;;;;26.03;17.20;;;;;;;;;;5115053;28;20537;-74
2022/03/04 00:40:10;;;;;;;24.67;16.67;;;;;;;;;;5114926;28;20860;-75
2022/03/04 00:42:36;;;;;;;23.57;16.50;;;;;;;;;;5115120;28;20403;-75
2022/03/04 00:45:03;;;;;;;21.20;16.20;;;;;;;;;;5115106;28;20408;-75
2022/03/04 00:47:29;;;;;;;24.10;16.03;;;;;;;;;;5114660;28;20455;-75
2022/03/04 00:49:55;;;;;;;21.20;16.17;;;;;;;;;;5114951;28;20523;-75
2022/03/04 00:52:21;;;;;;;30.33;16.17;;;;;;;;;;5114697;28;20513;-75
2022/03/04 00:54:47;;;;;;;25.20;18.47;;;;;;;;;;5114721;28;20909;-75
2022/03/04 00:57:13;;;;;;;30.03;15.87;;;;;;;;;;5114645;28;20412;-75
2022/03/04 00:59:39;;;;;;;21.80;16.90;;;;;;;;;;5095697;28;20423;-75
2022/03/04 01:02:05;;;;;;;29.40;17.50;;;;;;;;;;5114643;28;20415;-75
2022/03/04 01:04:31;;;;;;;38.37;19.07;;;;;;;;;;5114601;28;20940;-76
2022/03/04 01:06:57;;;;;;;30.60;17.63;;;;;;;;;;5114324;28;20886;-75
2022/03/04 01:09:23;;;;;;;24.77;17.00;;;;;;;;;;5114385;28;20961;-75
2022/03/04 01:11:49;;;;;;;24.03;16.50;;;;;;;;;;5114620;28;20431;-75
2022/03/04 01:14:15;;;;;;;28.00;18.50;;;;;;;;;;5114872;28;20416;-75
2022/03/04 01:16:41;;;;;;;31.03;18.60;;;;;;;;;;5114027;28;20440;-75
2022/03/04 01:19:07;;;;;;;28.23;18.63;;;;;;;;;;5114115;28;20431;-75
2022/03/04 01:21:34;;;;;;;31.23;18.87;;;;;;;;;;5114068;28;20412;-75
2022/03/04 01:24:00;;;;;;;32.30;18.10;;;;;;;;;;5114426;28;20412;-74
2022/03/04 01:26:26;;;;;;;32.60;15.97;;;;;;;;;;5114311;28;20415;-76
2022/03/04 01:28:52;;;;;;;29.90;18.83;;;;;;;;;;5114261;28;20466;-75
2022/03/04 01:31:18;;;;;;;25.43;16.77;;;;;;;;;;5113837;28;20447;-75
2022/03/04 01:33:44;;;;;;;27.60;16.50;;;;;;;;;;5113881;28;20444;-76
2022/03/04 01:36:10;;;;;;;31.13;17.20;;;;;;;;;;5114086;28;20412;-75
2022/03/04 01:38:36;;;;;;;24.93;16.17;;;;;;;;;;5114204;28;20510;-75
2022/03/04 01:41:03;;;;;;;24.97;17.30;;;;;;;;;;5114293;28;20468;-76
2022/03/04 01:43:29;;;;;;;21.53;14.97;;;;;;;;;;5114140;28;20428;-75
2022/03/04 01:45:55;;;;;;;25.03;17.03;;;;;;;;;;5113847;28;20426;-75
2022/03/04 01:48:22;;;;;;;24.00;17.03;;;;;;;;;;5113544;28;20798;-75
2022/03/04 01:50:49;;;;;;;25.87;18.30;;;;;;;;;;5113680;28;20867;-75
2022/03/04 01:53:15;;;;;;;26.20;16.87;;;;;;;;;;5113747;28;20400;-76
2022/03/04 01:55:41;;;;;;;24.60;16.30;;;;;;;;;;5113918;28;20420;-76
2022/03/04 01:58:07;;;;;;;24.70;17.40;;;;;;;;;;5113699;28;20419;-75
2022/03/04 02:00:33;;;;;;;21.63;16.03;;;;;;;;;;5113786;28;20418;-76
2022/03/04 02:03:00;;;;;;;23.30;16.67;;;;;;;;;;5113581;28;20792;-75
2022/03/04 02:05:26;;;;;;;22.03;17.53;;;;;;;;;;5113603;28;20974;-75
2022/03/04 02:07:52;;;;;;;23.53;16.63;;;;;;;;;;5113575;28;20420;-75
2022/03/04 02:10:18;;;;;;;29.87;18.20;;;;;;;;;;5113347;28;20472;-76
2022/03/04 02:12:44;;;;;;;23.80;16.33;;;;;;;;;;5113771;28;20430;-75
2022/03/04 02:15:10;;;;;;;22.17;16.17;;;;;;;;;;5113440;28;20415;-76
2022/03/04 02:17:37;;;;;;;24.07;14.70;;;;;;;;;;5113897;28;20415;-75
2022/03/04 02:20:04;;;;;;;30.93;15.43;;;;;;;;;;5113730;28;20419;-76
2022/03/04 02:22:31;;;;;;;24.10;16.43;;;;;;;;;;5113212;28;20458;-76
2022/03/04 02:24:57;;;;;;;26.50;15.53;;;;;;;;;;5113245;28;20420;-76
2022/03/04 02:27:23;;;;;;;23.53;16.67;;;;;;;;;;5113585;28;20411;-75
2022/03/04 02:29:49;;;;;;;22.53;15.80;;;;;;;;;;5113488;28;20471;-76
2022/03/04 02:32:15;;;;;;;23.50;15.90;;;;;;;;;;5113476;28;20415;-76
2022/03/04 02:34:41;;;;;;;21.33;14.20;;;;;;;;;;5113384;28;20415;-76
2022/03/04 02:37:07;;;;;;;19.57;15.43;;;;;;;;;;5113087;28;20963;-76
2022/03/04 02:39:33;;;;;;;23.33;15.13;;;;;;;;;;5113453;28;20419;-76
2022/03/04 02:41:59;;;;;;;30.60;19.53;;;;;;;;;;5113135;28;20412;-76
2022/03/04 02:44:25;;;;;;;28.63;16.87;;;;;;;;;;5113226;28;20451;-78
2022/03/04 02:46:51;;;;;;;21.60;15.47;;;;;;;;;;5113090;28;20415;-75
2022/03/04 02:49:17;;;;;;;22.20;15.33;;;;;;;;;;5113362;28;20524;-76
2022/03/04 02:51:43;;;;;;;23.30;15.80;;;;;;;;;;5113544;28;20403;-76
2022/03/04 02:54:09;;;;;;;28.73;16.30;;;;;;;;;;5112995;28;20898;-76
2022/03/04 02:56:35;;;;;;;24.70;15.23;;;;;;;;;;5113052;28;20404;-76
2022/03/04 02:59:01;;;;;;;31.73;15.53;;;;;;;;;;5112921;28;20452;-75
2022/03/04 03:01:27;;;;;;;21.27;13.90;;;;;;;;;;5112971;28;20506;-76
2022/03/04 03:03:54;;;;;;;24.97;16.03;;;;;;;;;;5113265;28;20777;-76
2022/03/04 03:06:19;;;;;;;30.13;15.40;;;;;;;;;;5113004;28;20450;-75
2022/03/04 03:08:46;;;;;;;24.80;16.60;;;;;;;;;;5094674;28;20531;-74
2022/03/04 03:11:12;;;;;;;17.60;13.63;;;;;;;;;;5113043;28;20415;-75
2022/03/04 03:13:38;;;;;;;32.40;16.77;;;;;;;;;;5113186;28;20509;-78
2022/03/04 03:16:04;;;;;;;22.17;14.70;;;;;;;;;;5112981;28;20411;-77
2022/03/04 03:18:30;;;;;;;21.00;14.97;;;;;;;;;;5094593;28;20428;-78
2022/03/04 03:20:56;;;;;;;22.80;15.10;;;;;;;;;;5112787;28;20509;-78
2022/03/04 03:23:22;;;;;;;18.90;13.50;;;;;;;;;;5115103;28;20455;-77
2022/03/04 03:25:48;;;;;;;21.90;14.20;;;;;;;;;;5098275;28;20427;-78
2022/03/04 03:28:14;;;;;;;18.43;13.53;;;;;;;;;;5116761;28;20467;-78
2022/03/04 03:30:40;;;;;;;25.67;15.23;;;;;;;;;;5116436;28;20470;-78
2022/03/04 03:33:06;;;;;;;22.20;14.23;;;;;;;;;;5116339;28;20435;-78
2022/03/04 03:35:32;;;;;;;21.50;13.67;;;;;;;;;;5116649;28;20947;-75
2022/03/04 03:37:58;;;;;;;20.67;15.00;;;;;;;;;;5098069;28;20432;-75
2022/03/04 03:40:24;;;;;;;18.37;14.03;;;;;;;;;;5116287;28;20460;-75
2022/03/04 03:42:50;;;;;;;19.80;14.07;;;;;;;;;;5116267;28;20495;-74
2022/03/04 03:45:16;;;;;;;26.17;14.93;;;;;;;;;;5116228;28;20508;-75
2022/03/04 03:47:43;;;;;;;21.80;14.33;;;;;;;;;;5116016;28;20460;-74
2022/03/04 03:50:10;;;;;;;20.63;13.70;;;;;;;;;;5116146;28;20428;-75
2022/03/04 03:52:38;;;;;;;22.83;14.70;;;;;;;;;;5116294;28;20539;-74
2022/03/04 03:55:04;;;;;;;25.00;16.23;;;;;;;;;;5115975;28;20484;-75
2022/03/04 03:57:30;;;;;;;26.03;14.60;;;;;;;;;;5116258;28;20431;-74
2022/03/04 03:59:56;;;;;;;21.27;13.70;;;;;;;;;;5116278;28;20427;-74
2022/03/04 04:02:22;;;;;;;22.33;15.40;;;;;;;;;;5115994;28;21032;-75
2022/03/04 04:04:48;;;;;;;20.80;14.90;;;;;;;;;;5116082;28;20821;-75
2022/03/04 04:07:14;;;;;;;18.53;14.07;;;;;;;;;;5115855;28;20416;-74
2022/03/04 04:09:40;;;;;;;21.23;15.40;;;;;;;;;;5115926;28;20479;-74
2022/03/04 04:12:06;;;;;;;25.60;16.17;;;;;;;;;;5116301;28;20445;-75
2022/03/04 04:14:32;;;;;;;24.13;15.10;;;;;;;;;;5115580;28;20906;-75
2022/03/04 04:16:58;;;;;;;22.20;13.87;;;;;;;;;;5115529;28;20422;-76
2022/03/04 04:19:25;;;;;;;22.17;14.23;;;;;;;;;;5115576;28;20408;-74
2022/03/04 04:21:51;;;;;;;17.17;13.00;;;;;;;;;;5115774;28;20947;-75
2022/03/04 04:24:17;;;;;;;19.47;13.50;;;;;;;;;;5115545;28;20427;-75
2022/03/04 04:26:44;;;;;;;15.97;13.07;;;;;;;;;;5115303;28;20407;-75
2022/03/04 04:29:11;;;;;;;21.57;14.80;;;;;;;;;;5115578;28;20562;-75
2022/03/04 04:31:38;;;;;;;19.50;12.83;;;;;;;;;;5115531;28;20898;-75
2022/03/04 04:34:03;;;;;;;20.47;14.60;;;;;;;;;;5114264;28;20913;-76
2022/03/04 04:36:29;;;;;;;20.47;13.17;;;;;;;;;;5115086;28;20419;-75
2022/03/04 04:38:55;;;;;;;18.30;13.70;;;;;;;;;;5115507;28;20412;-75
2022/03/04 04:41:22;;;;;;;22.80;13.67;;;;;;;;;;5115341;28;20419;-74
2022/03/04 04:43:48;;;;;;;28.17;15.00;;;;;;;;;;5115377;28;20440;-75
2022/03/04 04:46:14;;;;;;;18.90;13.67;;;;;;;;;;5115615;28;20420;-76
2022/03/04 04:48:40;;;;;;;25.80;15.27;;;;;;;;;;5114724;28;20960;-76
2022/03/04 04:51:06;;;;;;;18.27;13.00;;;;;;;;;;5114880;28;20902;-75
2022/03/04 04:53:32;;;;;;;18.37;11.80;;;;;;;;;;5115183;28;20905;-76
2022/03/04 04:55:58;;;;;;;18.93;13.47;;;;;;;;;;5114845;28;20498;-76
2022/03/04 04:58:24;;;;;;;21.53;13.93;;;;;;;;;;5114682;28;20498;-75
2022/03/04 05:00:53;;;;;;;20.83;14.30;;;;;;;;;;5114748;28;20416;-76
2022/03/04 05:03:22;;;;;;;15.87;13.07;;;;;;;;;;5114905;28;20435;-75
2022/03/04 05:05:48;;;;;;;16.17;12.20;;;;;;;;;;5114522;28;20921;-75
2022/03/04 05:08:15;;;;;;;22.63;14.50;;;;;;;;;;5115313;28;20464;-75
2022/03/04 05:10:41;;;;;;;19.60;14.30;;;;;;;;;;5114461;28;20427;-75
2022/03/04 05:13:07;;;;;;;25.60;14.40;;;;;;;;;;5114532;28;20481;-76
2022/03/04 05:15:33;;;;;;;19.43;14.10;;;;;;;;;;5114429;28;20420;-75
2022/03/04 05:17:59;;;;;;;21.07;14.60;;;;;;;;;;5114577;28;20469;-76
2022/03/04 05:20:25;;;;;;;23.37;15.70;;;;;;;;;;5114256;28;20427;-76
2022/03/04 05:22:51;;;;;;;23.60;14.90;;;;;;;;;;5096010;28;20470;-76
2022/03/04 05:25:17;;;;;;;22.67;15.00;;;;;;;;;;5114545;28;20430;-75
2022/03/04 05:27:43;;;;;;;17.97;13.30;;;;;;;;;;5114371;28;20415;-75
2022/03/04 05:30:09;;;;;;;22.23;15.03;;;;;;;;;;5113964;28;20479;-75
2022/03/04 05:32:35;;;;;;;21.00;15.07;;;;;;;;;;5114075;28;20454;-74
2022/03/04 05:35:01;;;;;;;26.30;15.10;;;;;;;;;;5095789;28;20459;-75
2022/03/04 05:37:27;;;;;;;21.27;14.47;;;;;;;;;;5113885;28;21078;-74
2022/03/04 05:39:53;;;;;;;22.10;14.47;;;;;;;;;;5113933;28;20455;-76
2022/03/04 05:42:20;;;;;;;23.93;14.53;;;;;;;;;;5113928;28;20424;-75
2022/03/04 05:44:46;;;;;;;18.87;14.10;;;;;;;;;;5113911;28;20411;-76
2022/03/04 05:47:12;;;;;;;24.63;16.20;;;;;;;;;;5113538;28;20498;-75
2022/03/04 05:49:38;;;;;;;35.70;21.10;;;;;;;;;;5113757;28;20503;-75
2022/03/04 05:52:04;;;;;;;27.20;17.80;;;;;;;;;;5113695;28;20415;-75
2022/03/04 05:54:31;;;;;;;23.40;16.30;;;;;;;;;;5113682;28;20419;-76
2022/03/04 05:56:57;;;;;;;23.27;14.13;;;;;;;;;;5113782;28;20502;-75
2022/03/04 05:59:23;;;;;;;20.10;14.37;;;;;;;;;;5113922;28;20458;-76
2022/03/04 06:01:49;;;;;;;19.27;13.53;;;;;;;;;;5113355;28;20966;-75
2022/03/04 06:04:15;;;;;;;26.40;13.63;;;;;;;;;;5113877;28;20423;-75
2022/03/04 06:06:41;;;;;;;20.30;13.00;;;;;;;;;;5114136;28;20411;-76
2022/03/04 06:09:07;;;;;;;17.70;13.00;;;;;;;;;;5113921;28;20483;-76
2022/03/04 06:11:33;;;;;;;23.80;12.87;;;;;;;;;;5113498;28;20439;-76
2022/03/04 06:13:59;;;;;;;21.90;12.70;;;;;;;;;;5113484;28;20970;-76
2022/03/04 06:16:25;;;;;;;26.40;14.77;;;;;;;;;;5113376;28;20431;-75
2022/03/04 06:18:51;;;;;;;22.47;14.47;;;;;;;;;;5113625;28;20419;-75
2022/03/04 06:21:17;;;;;;;22.90;13.93;;;;;;;;;;5113690;28;20408;-76
2022/03/04 06:23:43;;;;;;;33.33;15.10;;;;;;;;;;5113344;28;20419;-75
2022/03/04 06:26:09;;;;;;;32.87;16.47;;;;;;;;;;5113621;28;20435;-75
2022/03/04 06:28:35;;;;;;;22.33;14.37;;;;;;;;;;5113110;28;20495;-77
2022/03/04 06:31:01;;;;;;;27.30;16.10;;;;;;;;;;5113525;28;20929;-76
2022/03/04 06:33:30;;;;;;;23.83;15.17;;;;;;;;;;5113076;28;20538;-75
2022/03/04 06:35:56;;;;;;;25.37;15.90;;;;;;;;;;5113205;28;20755;-75
2022/03/04 06:38:22;;;;;;;28.07;18.17;;;;;;;;;;5113371;28;20411;-75
2022/03/04 06:40:49;;;;;;;31.37;17.80;;;;;;;;;;5113081;28;20951;-76
2022/03/04 06:43:15;;;;;;;34.70;18.80;;;;;;;;;;5113105;28;20407;-75
2022/03/04 06:45:45;;;;;;;30.30;18.20;;;;;;;;;;5113283;28;20472;-75
2022/03/04 06:48:11;;;;;;;27.27;18.67;;;;;;;;;;5113013;28;20517;-75
2022/03/04 06:50:37;;;;;;;31.60;18.67;;;;;;;;;;5113251;28;20438;-75
2022/03/04 06:53:04;;;;;;;34.50;19.93;;;;;;;;;;5113307;28;20424;-76
2022/03/04 06:55:30;;;;;;;32.87;18.90;;;;;;;;;;5113273;28;20936;-76
2022/03/04 06:57:56;;;;;;;41.43;15.97;;;;;;;;;;5114643;28;20412;-75
2022/03/04 07:00:24;;;;;;;20.07;14.03;;;;;;;;;;5117027;28;20492;-76
2022/03/04 07:02:50;;;;;;;23.47;14.80;;;;;;;;;;5116515;28;20410;-75
2022/03/04 07:05:16;;;;;;;24.03;15.67;;;;;;;;;;5116731;28;20419;-75
2022/03/04 07:07:42;;;;;;;21.13;14.10;;;;;;;;;;5117058;28;20501;-75
2022/03/04 07:10:08;;;;;;;23.30;14.27;;;;;;;;;;5116597;28;20493;-75
2022/03/04 07:12:34;;;;;;;24.53;12.23;;;;;;;;;;5116578;28;20411;-74
2022/03/04 07:15:00;;;;;;;19.23;12.90;;;;;;;;;;5116955;28;20488;-74
2022/03/04 07:17:26;;;;;;;20.10;12.27;;;;;;;;;;5116910;28;20809;-76
2022/03/04 07:19:52;;;;;;;16.77;11.90;;;;;;;;;;5116734;28;20412;-75
2022/03/04 07:22:18;;;;;;;12.37;9.60;;;;;;;;;;5116473;28;20419;-76
2022/03/04 07:24:44;;;;;;;14.77;10.30;;;;;;;;;;5098095;28;20435;-75
2022/03/04 07:27:10;;;;;;;20.70;12.20;;;;;;;;;;5116084;28;20419;-75
2022/03/04 07:29:36;;;;;;;20.07;12.37;;;;;;;;;;5116121;28;21061;-75
2022/03/04 07:32:02;;;;;;;14.80;11.93;;;;;;;;;;5116663;28;20412;-75
2022/03/04 07:34:28;;;;;;;15.17;12.30;;;;;;;;;;5097813;28;20500;-72
2022/03/04 07:36:54;;;;;;;14.13;10.63;;;;;;;;;;5116309;28;20416;-75
2022/03/04 07:39:20;;;;;;;16.87;9.70;;;;;;;;;;5097733;28;20929;-72
2022/03/04 07:41:48;;;;;;;16.57;8.87;;;;;;;;;;5115992;28;20499;-74
2022/03/04 07:44:14;;;;;;;14.90;11.73;;;;;;;;;;5116048;28;20758;-73
2022/03/04 07:46:40;;;;;;;13.80;10.50;;;;;;;;;;5116168;28;20436;-74
2022/03/04 07:49:06;;;;;;;14.73;8.80;;;;;;;;;;5116206;28;20557;-73
2022/03/04 07:51:33;;;;;;;13.23;9.30;;;;;;;;;;5116405;28;20801;-74
2022/03/04 07:53:59;;;;;;;12.83;10.00;;;;;;;;;;5115825;28;20913;-73
2022/03/04 07:56:25;;;;;;;12.87;9.70;;;;;;;;;;5116936;28;20408;-74
2022/03/04 07:58:51;;;;;;;14.70;9.87;;;;;;;;;;5115790;28;20998;-73
2022/03/04 08:01:17;;;;;;;14.53;10.20;;;;;;;;;;5116148;28;20453;-73
2022/03/04 08:03:43;;;;;;;14.57;10.50;;;;;;;;;;5115722;28;20511;-74
2022/03/04 08:06:09;;;;;;;22.53;10.30;;;;;;;;;;5115867;28;20935;-72
2022/03/04 08:08:35;;;;;;;16.47;10.40;;;;;;;;;;5115443;28;20463;-73
2022/03/04 08:11:02;;;;;;;19.37;12.00;;;;;;;;;;5115654;28;20416;-73
2022/03/04 08:13:28;;;;;;;20.83;11.00;;;;;;;;;;5115272;28;20774;-73
2022/03/04 08:15:54;;;;;;;12.50;10.23;;;;;;;;;;5115441;28;20419;-73
2022/03/04 08:18:20;;;;;;;14.30;10.50;;;;;;;;;;5115382;28;20418;-73
2022/03/04 08:20:46;;;;;;;19.47;11.77;;;;;;;;;;5115653;28;20438;-73
2022/03/04 08:26:16;;;;;;;13.13;10.30;;;;;;;;;;5115447;28;20386;-73
2022/03/04 08:28:42;;;;;;;15.87;11.00;;;;;;;;;;5115331;28;20459;-73
2022/03/04 08:31:11;;;;;;;16.73;10.67;;;;;;;;;;5115398;28;20472;-72
2022/03/04 08:33:38;;;;;;;14.30;10.13;;;;;;;;;;5115306;28;20457;-73
2022/03/04 08:36:07;;;;;;;15.53;11.63;;;;;;;;;;5115528;28;20427;-72
2022/03/04 08:38:33;;;;;;;17.00;10.67;;;;;;;;;;5114939;28;20733;-75
2022/03/04 08:41:00;;;;;;;15.43;10.83;;;;;;;;;;5096678;28;20428;-76
2022/03/04 08:43:26;;;;;;;17.70;12.17;;;;;;;;;;5114862;28;20428;-75
2022/03/04 08:45:53;;;;;;;18.20;12.03;;;;;;;;;;5115017;28;20423;-73
2022/03/04 08:48:23;;;;;;;13.83;11.13;;;;;;;;;;5114570;28;20475;-73
2022/03/04 08:50:49;;;;;;;13.17;11.70;;;;;;;;;;5115305;28;20514;-73
2022/03/04 08:53:15;;;;;;;15.47;12.30;;;;;;;;;;5114628;28;20431;-73
2022/03/04 08:55:44;;;;;;;11.70;9.60;;;;;;;;;;5115084;28;20411;-73
2022/03/04 08:58:10;;;;;;;15.23;11.73;;;;;;;;;;5114645;28;20414;-73
2022/03/04 09:00:37;;;;;;;18.23;11.60;;;;;;;;;;5114831;28;20412;-74
2022/03/04 09:03:02;;;;;;;17.93;11.80;;;;;;;;;;5114778;28;20930;-74
2022/03/04 09:05:30;;;;;;;14.13;10.20;;;;;;;;;;5114628;28;20411;-74
2022/03/04 09:07:56;;;;;;;16.73;12.67;;;;;;;;;;5114430;28;20420;-74
2022/03/04 09:10:22;;;;;;;20.70;13.57;;;;;;;;;;5114597;28;20499;-76
2022/03/04 09:15:51;;;;;;;14.53;11.83;;;;;;;;;;5114383;28;20422;-74
2022/03/04 09:18:17;;;;;;;26.50;14.87;;;;;;;;;;5114167;28;20422;-74
2022/03/04 09:20:44;;;;;;;19.37;12.27;;;;;;;;;;5113640;28;20412;-74
2022/03/04 09:23:10;;;;;;;15.40;10.40;;;;;;;;;;5114432;28;20415;-74
2022/03/04 09:25:36;;;;;;;14.73;9.90;;;;;;;;;;5095688;28;20443;-75
2022/03/04 09:28:03;;;;;;;14.30;11.40;;;;;;;;;;5113875;28;20476;-74
2022/03/04 09:30:33;;;;;;;16.77;11.83;;;;;;;;;;5113703;28;20419;-74
2022/03/04 09:32:59;;;;;;;11.90;10.63;;;;;;;;;;5114223;28;20418;-73
2022/03/04 09:35:25;;;;;;;22.77;10.47;;;;;;;;;;5114013;28;20423;-74
2022/03/04 09:37:51;;;;;;;12.03;10.30;;;;;;;;;;5113761;28;20412;-74
2022/03/04 09:40:17;;;;;;;14.87;11.50;;;;;;;;;;5114608;28;20424;-74
2022/03/04 09:42:43;;;;;;;12.87;10.53;;;;;;;;;;5113955;28;20464;-74
2022/03/04 09:45:09;;;;;;;22.43;15.30;;;;;;;;;;5114032;28;20423;-74
2022/03/04 09:47:35;;;;;;;16.97;12.37;;;;;;;;;;5113395;28;20471;-74
2022/03/04 09:50:02;;;;;;;13.67;11.37;;;;;;;;;;5113977;28;20467;-75
2022/03/04 09:52:30;;;;;;;13.43;10.40;;;;;;;;;;5113323;28;20415;-75
2022/03/04 09:54:56;;;;;;;19.73;11.43;;;;;;;;;;5113952;28;20463;-75
2022/03/04 09:57:22;;;;;;;20.30;11.67;;;;;;;;;;5114007;28;20416;-75
2022/03/04 09:59:48;;;;;;;13.37;9.90;;;;;;;;;;5113771;28;20418;-75
2022/03/04 10:02:15;;;;;;;15.80;11.10;;;;;;;;;;5113520;28;20415;-75
2022/03/04 10:04:41;;;;;;;13.90;11.57;;;;;;;;;;5113464;28;20894;-75
2022/03/04 10:07:11;;;;;;;20.07;11.20;;;;;;;;;;5113633;28;20492;-75
2022/03/04 10:09:40;;;;;;;15.13;11.50;;;;;;;;;;5113578;28;20792;-75
2022/03/04 10:12:07;;;;;;;14.70;10.70;;;;;;;;;;5113269;28;20924;-75
2022/03/04 10:14:33;;;;;;;11.03;9.77;;;;;;;;;;5113392;28;20506;-75
2022/03/04 10:16:59;;;;;;;15.03;10.70;;;;;;;;;;5113198;28;20431;-75
2022/03/04 10:19:25;;;;;;;13.23;10.30;;;;;;;;;;5113700;28;20404;-75
2022/03/04 10:21:58;;;;;;;11.73;10.17;;;;;;;;;;5113343;28;20487;-74
2022/03/04 10:24:35;;;;;;;12.80;9.30;;;;;;;;;;5113560;28;20408;-75
2022/03/04 10:27:01;;;;;;;16.80;11.13;;;;;;;;;;5113358;28;20406;-75
2022/03/04 10:29:28;;;;;;;16.63;11.00;;;;;;;;;;5113299;28;20463;-75
2022/03/04 10:32:06;;;;;;;18.50;13.50;;;;;;;;;;5112916;28;20787;-75
2022/03/04 10:34:51;;;;;;;13.83;10.00;;;;;;;;;;5117887;28;20432;-75
2022/03/04 10:37:22;;;;;;;17.53;10.40;;;;;;;;;;5117656;28;20419;-75
2022/03/04 10:40:17;;;;;;;10.63;8.10;;;;;;;;;;5117683;28;20406;-74
2022/03/04 10:42:43;;;;;;;14.30;10.13;;;;;;;;;;5095739;28;20524;-74
2022/03/04 10:45:10;;;;;;;14.90;11.20;;;;;;;;;;5117708;28;20612;-73
2022/03/04 10:47:44;;;;;;;14.07;10.50;;;;;;;;;;5116959;28;20467;-74
2022/03/04 10:50:10;;;;;;;13.80;11.10;;;;;;;;;;5117308;28;20467;-74
2022/03/04 10:52:47;;;;;;;12.00;10.40;;;;;;;;;;5117121;28;20502;-73
2022/03/04 10:55:13;;;;;;;14.83;12.60;;;;;;;;;;5117422;28;20460;-75
2022/03/04 10:57:42;;;;;;;15.67;11.23;;;;;;;;;;5117190;28;20803;-73
2022/03/04 11:00:08;;;;;;;26.37;12.30;;;;;;;;;;5117043;28;20498;-74
2022/03/04 11:05:38;;;;;;;10.77;9.63;;;;;;;;;;5116986;28;20460;-74
2022/03/04 11:08:04;;;;;;;14.10;11.13;;;;;;;;;;5117048;28;20881;-73
2022/03/04 11:10:30;;;;;;;14.40;10.10;;;;;;;;;;5098311;28;20446;-73
2022/03/04 11:12:56;;;;;;;13.47;10.27;;;;;;;;;;5117076;28;20411;-73
2022/03/04 11:15:23;;;;;;;15.23;11.53;;;;;;;;;;5117007;28;20455;-73
2022/03/04 11:17:49;;;;;;;16.60;10.93;;;;;;;;;;5116598;28;20885;-73
2022/03/04 11:20:16;;;;;;;14.10;10.43;;;;;;;;;;5116508;28;20925;-74
2022/03/04 11:22:43;;;;;;;15.27;9.60;;;;;;;;;;5116520;28;20483;-72
2022/03/04 11:25:12;;;;;;;14.80;10.33;;;;;;;;;;5116203;28;20415;-73
2022/03/04 11:27:42;;;;;;;15.80;10.03;;;;;;;;;;5116839;28;20412;-76
2022/03/04 11:30:09;;;;;;;10.30;9.20;;;;;;;;;;5116242;28;20475;-73
2022/03/04 11:32:35;;;;;;;15.67;10.33;;;;;;;;;;5116562;28;20479;-72
2022/03/04 11:35:01;;;;;;;12.17;10.13;;;;;;;;;;5116419;28;20445;-72
2022/03/04 11:37:27;;;;;;;19.53;11.67;;;;;;;;;;5116133;28;20416;-72
2022/03/04 11:40:06;;;;;;;12.30;10.20;;;;;;;;;;5116571;28;20422;-72
2022/03/04 11:45:37;;;;;;;17.10;10.20;;;;;;;;;;5115668;28;20920;-73
2022/03/04 11:48:08;;;;;;;11.90;8.33;;;;;;;;;;5115973;28;20540;-74
2022/03/04 11:50:38;;;;;;;12.23;10.17;;;;;;;;;;5115901;28;20424;-73
2022/03/04 11:53:14;;;;;;;13.60;9.93;;;;;;;;;;5115794;28;20419;-74
2022/03/04 11:55:41;;;;;;;16.63;10.60;;;;;;;;;;5116044;28;20446;-74
2022/03/04 11:58:07;;;;;;;9.57;7.83;;;;;;;;;;5115992;28;20901;-73
2022/03/04 12:00:34;;;;;;;15.00;9.30;;;;;;;;;;5115561;28;20415;-74
2022/03/04 12:03:10;;;;;;;14.60;10.50;;;;;;;;;;5115359;28;20408;-73
2022/03/04 12:05:38;;;;;;;13.67;8.93;;;;;;;;;;5115675;28;20404;-73
2022/03/04 12:08:04;;;;;;;16.97;9.20;;;;;;;;;;5115391;28;21009;-74
2022/03/04 12:10:36;;;;;;;23.57;11.17;;;;;;;;;;5115835;28;20502;-73
2022/03/04 12:13:04;;;;;;;10.43;9.43;;;;;;;;;;5115861;28;20816;-73
2022/03/04 12:15:31;;;;;;;14.40;10.33;;;;;;;;;;5115745;28;20408;-73
2022/03/04 12:18:04;;;;;;;13.30;9.57;;;;;;;;;;5096899;28;20863;-74
2022/03/04 12:20:30;;;;;;;10.83;8.03;;;;;;;;;;5115295;28;20454;-74
2022/03/04 12:22:57;;;;;;;13.00;9.93;;;;;;;;;;5115457;28;20429;-74
2022/03/04 12:25:23;;;;;;;18.07;11.03;;;;;;;;;;5115006;28;20434;-74
2022/03/04 12:27:54;;;;;;;11.47;8.57;;;;;;;;;;5115323;28;20448;-74
2022/03/04 12:30:22;;;;;;;9.47;8.30;;;;;;;;;;5115379;28;20490;-74
2022/03/04 12:32:49;;;;;;;12.70;10.17;;;;;;;;;;5115389;28;20412;-74
2022/03/04 12:35:18;;;;;;;9.70;8.67;;;;;;;;;;5115099;28;20415;-74
2022/03/04 12:37:44;;;;;;;16.63;9.93;;;;;;;;;;5115234;28;20500;-75
2022/03/04 12:40:11;;;;;;;14.43;8.97;;;;;;;;;;5115239;28;20416;-73
2022/03/04 12:42:37;;;;;;;13.57;9.83;;;;;;;;;;5115067;28;20407;-76
2022/03/04 12:45:08;;;;;;;12.53;9.50;;;;;;;;;;5096906;28;20430;-75
2022/03/04 12:47:36;;;;;;;15.20;11.40;;;;;;;;;;5114868;28;20460;-74
2022/03/04 12:50:02;;;;;;;25.90;10.93;;;;;;;;;;5114626;28;20836;-74
2022/03/04 12:52:28;;;;;;;13.33;9.63;;;;;;;;;;5114475;28;20855;-73
2022/03/04 12:54:54;;;;;;;16.03;10.53;;;;;;;;;;5113884;28;20455;-76
2022/03/04 12:57:24;;;;;;;28.03;11.40;;;;;;;;;;5114659;28;20414;-74
2022/03/04 12:59:50;;;;;;;14.30;9.90;;;;;;;;;;5096118;28;20962;-74
2022/03/04 13:02:16;;;;;;;11.23;8.67;;;;;;;;;;5114443;28;20416;-72
2022/03/04 13:04:56;;;;;;;16.00;8.63;;;;;;;;;;5114401;28;20424;-73
2022/03/04 13:07:22;;;;;;;11.47;8.87;;;;;;;;;;5114603;28;20388;-72
2022/03/04 13:09:48;;;;;;;16.57;10.67;;;;;;;;;;5114720;28;20459;-72
2022/03/04 13:12:14;;;;;;;15.40;9.83;;;;;;;;;;5114607;28;20482;-73
2022/03/04 13:14:40;;;;;;;18.80;9.80;;;;;;;;;;5114312;28;20419;-72
2022/03/04 13:17:12;;;;;;;10.10;8.57;;;;;;;;;;5114419;28;20423;-75
2022/03/04 13:19:41;;;;;;;13.23;9.30;;;;;;;;;;5114145;28;20404;-72
2022/03/04 13:22:12;;;;;;;13.97;10.77;;;;;;;;;;5113773;28;20408;-73
2022/03/04 13:24:39;;;;;;;12.03;9.30;;;;;;;;;;5113932;28;20469;-76
2022/03/04 13:27:06;;;;;;;18.87;9.63;;;;;;;;;;5113890;28;20465;-74
2022/03/04 13:29:39;;;;;;;11.90;9.10;;;;;;;;;;5113855;28;20463;-74
2022/03/04 13:32:22;;;;;;;13.27;10.47;;;;;;;;;;5114224;28;20909;-74
2022/03/04 13:35:10;;;;;;;8.40;7.30;;;;;;;;;;5113895;28;20800;-73
2022/03/04 13:37:40;;;;;;;13.03;9.90;;;;;;;;;;5113653;28;20423;-73
2022/03/04 13:40:16;;;;;;;18.13;13.17;;;;;;;;;;5114402;28;20817;-73
2022/03/04 13:42:43;;;;;;;13.00;10.80;;;;;;;;;;5113837;28;20874;-74
2022/03/04 13:45:10;;;;;;;12.93;8.73;;;;;;;;;;5113873;28;20747;-73
2022/03/04 13:47:39;;;;;;;13.07;9.20;;;;;;;;;;5113754;28;20455;-73
2022/03/04 13:50:17;;;;;;;14.90;8.60;;;;;;;;;;5113689;28;20875;-73
2022/03/04 13:52:49;;;;;;;11.17;8.43;;;;;;;;;;5113715;28;20415;-73
2022/03/04 13:55:16;;;;;;;12.20;8.60;;;;;;;;;;5113342;28;20411;-73
2022/03/04 13:57:42;;;;;;;13.93;9.83;;;;;;;;;;5113439;28;20454;-73
2022/03/04 14:00:09;;;;;;;12.57;9.80;;;;;;;;;;5112789;28;20405;-74
2022/03/04 14:02:45;;;;;;;13.00;7.87;;;;;;;;;;5113917;28;20188;-73
2022/03/04 14:05:13;;;;;;;17.90;10.37;;;;;;;;;;5113259;28;20916;-74
2022/03/04 14:07:40;;;;;;;12.27;7.17;;;;;;;;;;5114107;28;20875;-73
2022/03/04 14:10:10;;;;;;;18.03;9.90;;;;;;;;;;5113186;28;20463;-73
2022/03/04 14:12:36;;;;;;;12.47;7.90;;;;;;;;;;5113849;28;20451;-74
2022/03/04 14:15:02;;;;;;;19.23;12.43;;;;;;;;;;5113431;28;20447;-74
2022/03/04 14:17:28;;;;;;;15.67;10.83;;;;;;;;;;5113320;28;20498;-73
2022/03/04 14:19:55;;;;;;;16.70;10.90;;;;;;;;;;5113485;28;20496;-74
2022/03/04 14:22:21;;;;;;;17.70;8.93;;;;;;;;;;5113490;28;20456;-74
2022/03/04 14:24:47;;;;;;;14.83;11.33;;;;;;;;;;5113274;28;20420;-73
2022/03/04 14:27:13;;;;;;;15.97;11.03;;;;;;;;;;5113666;28;20404;-73
2022/03/04 14:29:39;;;;;;;17.57;10.73;;;;;;;;;;5113015;28;20664;-74